createdAt,value
2019-05-07T00:01:23.074Z,5.65
2019-05-07T00:03:53.027Z,5.60
2019-05-07T00:06:23.380Z,5.58
2019-05-07T00:08:53.993Z,5.71
2019-05-07T00:11:24.399Z,5.84
2019-05-07T00:13:54.711Z,5.70
2019-05-07T00:16:25.121Z,5.70
2019-05-07T00:18:55.817Z,5.81
2019-05-07T00:21:26.236Z,5.86
2019-05-07T00:23:56.548Z,5.97
2019-05-07T00:26:27.215Z,5.78
2019-05-07T00:28:57.868Z,5.65
2019-05-07T00:31:28.715Z,5.75
2019-05-07T00:33:59.127Z,5.82
2019-05-07T00:36:44.556Z,5.63
2019-05-07T00:39:38.205Z,5.74
2019-05-07T00:42:33.198Z,5.68
2019-05-07T00:45:16.895Z,5.66
2019-05-07T00:47:42.457Z,5.60
2019-05-07T00:50:18.478Z,5.72
2019-05-07T00:52:48.807Z,5.74
2019-05-07T00:55:19.558Z,5.79
2019-05-07T00:57:52.507Z,5.79
2019-05-07T01:00:22.774Z,5.82
2019-05-07T01:02:53.150Z,5.72
2019-05-07T01:05:23.631Z,5.71
2019-05-07T01:07:54.404Z,5.75
2019-05-07T01:10:24.825Z,5.71
2019-05-07T01:12:55.214Z,5.82
2019-05-07T01:15:30.997Z,5.70
2019-05-07T01:17:59.254Z,5.83
2019-05-07T01:20:29.551Z,5.98
2019-05-07T01:23:02.437Z,5.81
2019-05-07T01:25:33.013Z,5.84
2019-05-07T01:28:03.527Z,5.79
2019-05-07T01:30:34.048Z,5.76
2019-05-07T01:33:25.155Z,5.75
2019-05-07T01:36:04.878Z,5.84
2019-05-07T01:38:35.411Z,5.66
2019-05-07T01:41:05.702Z,5.72
2019-05-07T01:43:36.201Z,5.67
2019-05-07T01:46:06.761Z,5.83
2019-05-07T01:48:37.094Z,5.76
2019-05-07T01:51:07.646Z,5.72
2019-05-07T01:53:38.539Z,5.81
2019-05-07T01:56:08.813Z,5.65
2019-05-07T01:58:39.388Z,5.79
2019-05-07T02:01:10.078Z,5.88
2019-05-07T02:04:04.828Z,5.94
2019-05-07T02:06:39.998Z,5.98
2019-05-07T02:09:35.226Z,5.97
2019-05-07T02:12:17.092Z,5.95
2019-05-07T02:14:47.891Z,5.98
2019-05-07T02:17:18.182Z,6.06
2019-05-07T02:19:48.613Z,5.88
2019-05-07T02:22:19.686Z,6.04
2019-05-07T02:24:52.171Z,6.05
2019-05-07T02:27:23.797Z,5.90
2019-05-07T02:29:54.514Z,5.75
2019-05-07T02:32:25.095Z,5.75
2019-05-07T02:34:55.389Z,5.90
2019-05-07T02:37:41.806Z,5.81
2019-05-07T02:40:14.312Z,5.89
2019-05-07T02:42:45.956Z,5.90
2019-05-07T02:45:35.310Z,5.88
2019-05-07T02:48:05.704Z,6.00
2019-05-07T02:50:43.717Z,5.90
2019-05-07T02:53:34.294Z,5.84
2019-05-07T02:56:04.890Z,5.84
2019-05-07T02:58:35.752Z,5.59
2019-05-07T03:01:06.447Z,5.68
2019-05-07T03:03:36.708Z,5.63
2019-05-07T03:06:07.343Z,5.56
2019-05-07T03:08:37.789Z,5.66
2019-05-07T03:11:08.118Z,5.64
2019-05-07T03:13:39.078Z,5.57
2019-05-07T03:16:12.794Z,5.88
2019-05-07T03:18:43.765Z,5.75
2019-05-07T03:21:17.621Z,5.77
2019-05-07T03:23:58.191Z,5.81
2019-05-07T03:26:34.162Z,5.71
2019-05-07T03:29:07.128Z,5.79
2019-05-07T03:31:59.279Z,5.91
2019-05-07T03:34:47.164Z,5.85
2019-05-07T03:37:23.296Z,5.79
2019-05-07T03:39:53.719Z,5.76
2019-05-07T03:42:24.463Z,6.02
2019-05-07T03:45:03.609Z,5.98
2019-05-07T03:47:39.184Z,5.98
2019-05-07T03:50:14.685Z,6.01
2019-05-07T03:52:44.292Z,6.09
2019-05-07T03:55:15.201Z,5.89
2019-05-07T03:57:45.611Z,6.12
2019-05-07T04:00:17.106Z,6.21
2019-05-07T04:02:47.820Z,5.96
2019-05-07T04:05:18.211Z,6.07
2019-05-07T04:07:48.771Z,5.91
2019-05-07T04:10:19.197Z,6.05
2019-05-07T04:12:49.606Z,6.02
2019-05-07T04:15:23.091Z,6.04
2019-05-07T04:17:53.603Z,6.09
2019-05-07T04:20:24.800Z,6.06
2019-05-07T04:22:55.525Z,6.09
2019-05-07T04:25:43.565Z,6.23
2019-05-07T04:28:33.406Z,6.04
2019-05-07T04:31:04.833Z,6.09
2019-05-07T04:33:38.584Z,6.34
2019-05-07T04:36:29.329Z,6.20
2019-05-07T04:39:02.848Z,6.11
2019-05-07T04:41:33.113Z,6.42
2019-05-07T04:44:03.999Z,6.24
2019-05-07T04:46:35.837Z,6.19
2019-05-07T04:49:06.164Z,6.26
2019-05-07T04:51:46.233Z,6.34
2019-05-07T04:54:16.578Z,6.26
2019-05-07T04:56:47.330Z,6.26
2019-05-07T04:59:17.969Z,6.40
2019-05-07T05:01:54.603Z,6.40
2019-05-07T05:04:30.561Z,6.28
2019-05-07T05:06:57.154Z,6.15
2019-05-07T05:09:27.465Z,6.23
2019-05-07T05:11:57.827Z,6.17
2019-05-07T05:14:28.473Z,6.23
2019-05-07T05:16:59.153Z,6.21
2019-05-07T05:19:29.431Z,6.28
2019-05-07T05:22:17.763Z,6.27
2019-05-07T05:24:56.443Z,6.24
2019-05-07T05:27:29.969Z,6.29
2019-05-07T05:29:59.371Z,6.18
2019-05-07T05:32:29.697Z,6.23
2019-05-07T05:35:03.327Z,6.36
2019-05-07T05:37:33.834Z,6.23
2019-05-07T05:40:08.685Z,6.19
2019-05-07T05:42:42.890Z,6.42
2019-05-07T05:45:33.470Z,6.33
2019-05-07T05:48:08.084Z,6.31
2019-05-07T05:50:44.358Z,6.24
2019-05-07T05:53:25.099Z,6.36
2019-05-07T05:55:58.201Z,6.39
2019-05-07T05:58:40.021Z,6.45
2019-05-07T06:01:38.539Z,6.27
2019-05-07T06:04:16.936Z,6.26
2019-05-07T06:07:13.987Z,6.37
2019-05-07T06:10:09.393Z,6.21
2019-05-07T06:13:01.945Z,6.37
2019-05-07T06:16:09.831Z,6.51
2019-05-07T06:18:59.297Z,6.42
2019-05-07T06:21:52.630Z,6.44
2019-05-07T06:24:34.786Z,6.07
2019-05-07T06:27:05.204Z,6.35
2019-05-07T06:29:35.652Z,6.04
2019-05-07T06:32:08.304Z,6.36
2019-05-07T06:34:41.769Z,6.33
2019-05-07T06:37:11.861Z,6.45
2019-05-07T06:39:52.958Z,6.23
2019-05-07T06:42:40.009Z,6.22
2019-05-07T06:45:19.443Z,6.26
2019-05-07T06:47:51.942Z,6.36
2019-05-07T06:50:22.197Z,6.46
2019-05-07T06:52:54.070Z,6.31
2019-05-07T06:55:25.396Z,6.58
2019-05-07T06:57:55.718Z,6.73
2019-05-07T07:00:44.955Z,6.55
2019-05-07T07:03:22.460Z,6.59
2019-05-07T07:06:03.490Z,6.66
2019-05-07T07:08:41.887Z,6.65
2019-05-07T07:11:22.486Z,6.45
2019-05-07T07:13:53.302Z,6.26
2019-05-07T07:16:23.797Z,6.56
2019-05-07T07:18:55.781Z,6.38
2019-05-07T07:21:26.629Z,6.42
2019-05-07T07:23:57.220Z,6.43
2019-05-07T07:26:27.524Z,6.71
2019-05-07T07:28:58.251Z,6.62
2019-05-07T07:31:36.206Z,6.23
2019-05-07T07:34:06.817Z,6.46
2019-05-07T07:36:43.705Z,6.23
2019-05-07T07:39:14.139Z,6.55
2019-05-07T07:41:52.211Z,6.29
2019-05-07T07:44:23.072Z,6.18
2019-05-07T07:46:53.831Z,6.38
2019-05-07T07:49:24.170Z,6.53
2019-05-07T07:51:54.473Z,6.37
2019-05-07T07:54:25.274Z,6.24
2019-05-07T07:57:17.600Z,6.64
2019-05-07T07:59:53.823Z,6.41
2019-05-07T08:02:45.700Z,6.51
2019-05-07T08:05:16.119Z,6.31
2019-05-07T08:07:46.419Z,6.57
2019-05-07T08:10:16.784Z,6.69
2019-05-07T08:12:47.274Z,6.45
2019-05-07T08:15:21.842Z,6.53
2019-05-07T08:17:52.181Z,6.64
2019-05-07T08:20:23.029Z,6.47
2019-05-07T08:22:54.388Z,6.71
2019-05-07T08:25:43.828Z,6.72
2019-05-07T08:28:14.275Z,6.61
2019-05-07T08:30:49.197Z,6.79
2019-05-07T08:33:32.116Z,6.73
2019-05-07T08:36:14.920Z,6.73
2019-05-07T08:38:52.878Z,6.80
2019-05-07T08:41:25.699Z,6.75
2019-05-07T08:44:11.764Z,6.76
2019-05-07T08:47:02.824Z,6.93
2019-05-07T08:49:39.595Z,7.04
2019-05-07T08:52:06.029Z,6.72
2019-05-07T08:54:36.690Z,6.34
2019-05-07T08:57:07.118Z,6.72
2019-05-07T08:59:37.776Z,6.78
2019-05-07T09:02:08.613Z,6.78
2019-05-07T09:04:38.976Z,6.81
2019-05-07T09:07:09.321Z,6.94
2019-05-07T09:09:39.720Z,6.82
2019-05-07T09:12:12.191Z,6.49
2019-05-07T09:14:42.674Z,6.77
2019-05-07T09:17:13.373Z,6.63
2019-05-07T09:19:50.718Z,6.52
2019-05-07T09:22:16.398Z,6.78
2019-05-07T09:24:46.686Z,6.61
2019-05-07T09:27:23.492Z,6.34
2019-05-07T09:30:12.817Z,6.59
2019-05-07T09:33:08.144Z,6.58
2019-05-07T09:35:46.787Z,6.37
2019-05-07T09:38:17.282Z,6.55
2019-05-07T09:40:48.089Z,6.55
2019-05-07T09:43:18.382Z,6.54
2019-05-07T09:45:49.208Z,6.32
2019-05-07T09:48:22.006Z,6.44
2019-05-07T09:50:53.151Z,6.57
2019-05-07T09:53:23.919Z,6.36
2019-05-07T09:55:54.683Z,6.52
2019-05-07T09:58:35.599Z,6.49
2019-05-07T10:00:57.541Z,6.45
2019-05-07T10:03:28.342Z,6.42
2019-05-07T10:05:58.632Z,6.33
2019-05-07T10:08:29.327Z,6.35
2019-05-07T10:11:00.132Z,6.26
2019-05-07T10:13:35.197Z,6.29
2019-05-07T10:16:07.660Z,6.24
2019-05-07T10:18:38.436Z,6.35
2019-05-07T10:21:08.730Z,6.16
2019-05-07T10:23:41.583Z,6.40
2019-05-07T10:26:12.227Z,6.31
2019-05-07T10:28:43.032Z,6.44
2019-05-07T10:31:13.741Z,6.44
2019-05-07T10:33:44.085Z,6.34
2019-05-07T10:36:14.479Z,6.75
2019-05-07T10:38:45.211Z,6.67
2019-05-07T10:41:15.700Z,6.55
2019-05-07T10:43:46.021Z,6.63
2019-05-07T10:46:35.655Z,6.68
2019-05-07T10:49:12.301Z,6.48
2019-05-07T10:51:42.727Z,6.53
2019-05-07T10:54:13.789Z,6.54
2019-05-07T10:56:44.271Z,6.54
2019-05-07T10:59:14.889Z,6.61
2019-05-07T11:02:04.136Z,6.54
2019-05-07T11:04:42.092Z,6.19
2019-05-07T11:07:07.131Z,6.36
2019-05-07T11:09:37.459Z,6.20
2019-05-07T11:12:07.781Z,6.17
2019-05-07T11:14:38.592Z,6.06
2019-05-07T11:17:28.254Z,6.14
2019-05-07T11:19:58.612Z,6.25
2019-05-07T11:22:29.062Z,6.39
2019-05-07T11:25:02.974Z,6.48
2019-05-07T11:27:34.240Z,6.24
2019-05-07T11:30:05.350Z,6.24
2019-05-07T11:32:35.764Z,6.13
2019-05-07T11:35:06.691Z,6.18
2019-05-07T11:37:37.229Z,6.27
2019-05-07T11:40:08.122Z,6.26
2019-05-07T11:42:56.604Z,6.09
2019-05-07T11:45:32.277Z,6.30
2019-05-07T11:48:04.377Z,6.32
2019-05-07T11:51:03.077Z,5.88
2019-05-07T11:53:26.170Z,5.78
2019-05-07T11:55:56.499Z,6.02
2019-05-07T11:58:26.878Z,6.18
2019-05-07T12:01:03.999Z,6.34
2019-05-07T12:03:34.182Z,6.29
2019-05-07T12:06:04.675Z,5.99
2019-05-07T12:08:43.000Z,6.04
2019-05-07T12:11:07.372Z,5.91
2019-05-07T12:13:37.678Z,6.25
2019-05-07T12:16:11.463Z,6.04
2019-05-07T12:18:42.960Z,5.92
2019-05-07T12:21:20.247Z,6.09
2019-05-07T12:23:45.250Z,5.77
2019-05-07T12:26:16.042Z,5.64
2019-05-07T12:28:46.572Z,5.70
2019-05-07T12:31:34.557Z,5.93
2019-05-07T12:34:16.244Z,5.70
2019-05-07T12:36:46.640Z,5.68
2019-05-07T12:39:17.034Z,5.67
2019-05-07T12:41:47.322Z,5.53
2019-05-07T12:44:17.987Z,5.66
2019-05-07T12:46:48.686Z,5.76
2019-05-07T12:49:19.035Z,5.60
2019-05-07T12:52:04.349Z,5.52
2019-05-07T12:54:59.896Z,5.50
2019-05-07T12:57:30.227Z,5.82
2019-05-07T13:00:19.594Z,5.37
2019-05-07T13:03:16.717Z,5.59
2019-05-07T13:05:47.082Z,5.81
2019-05-07T13:08:17.593Z,5.63
2019-05-07T13:10:47.950Z,5.65
2019-05-07T13:13:18.485Z,5.60
2019-05-07T13:15:49.102Z,5.88
2019-05-07T13:18:19.387Z,5.70
2019-05-07T13:20:51.877Z,5.84
2019-05-07T13:23:22.616Z,5.89
2019-05-07T13:25:53.475Z,5.92
2019-05-07T13:28:23.813Z,5.86
2019-05-07T13:30:54.581Z,6.03
2019-05-07T13:33:25.318Z,5.82
2019-05-07T13:35:55.711Z,6.03
2019-05-07T13:38:45.344Z,6.16
2019-05-07T13:41:43.588Z,6.10
2019-05-07T13:44:36.177Z,5.74
2019-05-07T13:47:43.712Z,5.69
2019-05-07T13:50:14.292Z,5.74
2019-05-07T13:52:45.480Z,5.40
2019-05-07T13:55:16.887Z,5.48
2019-05-07T13:57:47.186Z,5.69
2019-05-07T14:00:25.956Z,5.40
2019-05-07T14:02:56.551Z,5.72
2019-05-07T14:05:26.898Z,5.58
2019-05-07T14:07:57.445Z,5.72
2019-05-07T14:10:28.294Z,5.52
2019-05-07T14:13:10.969Z,5.68
2019-05-07T14:15:32.167Z,5.61
2019-05-07T14:18:02.963Z,5.64
2019-05-07T14:20:33.745Z,5.66
2019-05-07T14:23:04.483Z,5.67
2019-05-07T14:25:34.994Z,5.72
2019-05-07T14:28:05.856Z,5.82
2019-05-07T14:30:36.449Z,5.69
2019-05-07T14:33:12.884Z,5.79
2019-05-07T14:36:02.626Z,5.79
2019-05-07T14:38:37.886Z,5.92
2019-05-07T14:41:08.263Z,5.85
2019-05-07T14:43:47.364Z,5.68
2019-05-07T14:46:17.926Z,5.69
2019-05-07T14:48:48.756Z,5.61
2019-05-07T14:51:19.585Z,5.67
2019-05-07T14:53:49.996Z,5.67
2019-05-07T14:56:23.012Z,5.63
2019-05-07T14:58:52.760Z,5.52
2019-05-07T15:01:23.064Z,5.51
2019-05-07T15:03:53.484Z,5.58
2019-05-07T15:06:24.564Z,5.57
2019-05-07T15:08:55.048Z,5.58
2019-05-07T15:11:25.788Z,5.59
2019-05-07T15:13:56.638Z,5.54
2019-05-07T15:16:28.059Z,5.60
2019-05-07T15:18:59.520Z,5.65
2019-05-07T15:21:32.144Z,5.63
2019-05-07T15:24:02.357Z,5.60
2019-05-07T15:26:34.617Z,5.70
2019-05-07T15:29:12.047Z,5.66
2019-05-07T15:32:07.949Z,5.73
2019-05-07T15:34:38.398Z,5.81
2019-05-07T15:37:08.866Z,5.81
2019-05-07T15:39:39.419Z,5.92
2019-05-07T15:42:10.232Z,6.00
2019-05-07T15:44:43.076Z,5.82
2019-05-07T15:47:18.053Z,6.02
2019-05-07T15:49:49.751Z,6.10
2019-05-07T15:52:41.323Z,6.14
2019-05-07T15:55:13.226Z,6.07
2019-05-07T15:57:43.554Z,6.14
2019-05-07T16:00:16.135Z,6.23
2019-05-07T16:02:48.776Z,6.21
2019-05-07T16:05:19.254Z,6.33
2019-05-07T16:07:50.286Z,6.16
2019-05-07T16:10:23.294Z,6.15
2019-05-07T16:12:53.673Z,6.23
2019-05-07T16:15:24.029Z,6.30
2019-05-07T16:18:02.942Z,6.02
2019-05-07T16:20:34.727Z,6.26
2019-05-07T16:23:14.672Z,6.24
2019-05-07T16:25:37.281Z,6.21
2019-05-07T16:28:07.729Z,6.25
2019-05-07T16:30:38.983Z,6.36
2019-05-07T16:33:09.386Z,6.43
2019-05-07T16:35:42.319Z,6.39
2019-05-07T16:38:14.434Z,6.33
2019-05-07T16:40:44.440Z,6.34
2019-05-07T16:43:15.072Z,6.37
2019-05-07T16:45:45.749Z,6.55
2019-05-07T16:48:16.081Z,6.53
2019-05-07T16:50:46.754Z,6.37
2019-05-07T16:53:27.446Z,6.35
2019-05-07T16:55:49.369Z,6.23
2019-05-07T16:58:26.315Z,6.25
2019-05-07T17:01:00.428Z,6.21
2019-05-07T17:03:36.990Z,6.35
2019-05-07T17:06:07.503Z,6.14
2019-05-07T17:08:51.663Z,6.36
2019-05-07T17:11:22.729Z,6.33
2019-05-07T17:13:53.496Z,6.28
2019-05-07T17:16:23.797Z,6.31
2019-05-07T17:18:54.625Z,6.32
2019-05-07T17:21:25.351Z,6.21
2019-05-07T17:23:55.701Z,6.33
2019-05-07T17:26:26.140Z,6.38
2019-05-07T17:28:56.715Z,6.49
2019-05-07T17:31:27.466Z,6.41
2019-05-07T17:33:58.019Z,6.43
2019-05-07T17:36:28.352Z,6.54
2019-05-07T17:38:58.816Z,6.47
2019-05-07T17:41:29.527Z,6.58
2019-05-07T17:43:59.825Z,6.60
2019-05-07T17:46:32.185Z,6.50
2019-05-07T17:49:02.670Z,6.68
2019-05-07T17:51:52.606Z,6.63
2019-05-07T17:54:23.120Z,6.64
2019-05-07T17:56:53.789Z,6.57
2019-05-07T17:59:24.151Z,6.62
2019-05-07T18:02:02.826Z,6.46
2019-05-07T18:04:47.531Z,6.59
2019-05-07T18:07:07.380Z,6.61
2019-05-07T18:09:38.313Z,6.61
2019-05-07T18:12:08.623Z,6.59
2019-05-07T18:14:42.223Z,6.64
2019-05-07T18:17:34.139Z,6.59
2019-05-07T18:20:05.515Z,6.58
2019-05-07T18:22:35.894Z,6.74
2019-05-07T18:25:06.563Z,6.65
2019-05-07T18:27:37.084Z,6.78
2019-05-07T18:30:08.564Z,6.95
2019-05-07T18:32:43.300Z,6.72
2019-05-07T18:35:14.048Z,6.70
2019-05-07T18:37:53.732Z,6.64
2019-05-07T18:40:25.324Z,6.65
2019-05-07T18:42:55.641Z,6.73
2019-05-07T18:45:26.395Z,6.83
2019-05-07T18:47:56.897Z,6.84
2019-05-07T18:50:27.243Z,6.67
2019-05-07T18:52:57.916Z,6.78
2019-05-07T18:55:28.664Z,6.88
2019-05-07T18:57:58.944Z,6.81
2019-05-07T19:00:32.868Z,6.63
2019-05-07T19:03:03.701Z,6.78
2019-05-07T19:05:34.104Z,6.90
2019-05-07T19:08:08.365Z,6.70
2019-05-07T19:10:36.994Z,6.77
2019-05-07T19:13:07.875Z,6.73
2019-05-07T19:15:38.735Z,6.83
2019-05-07T19:18:09.212Z,6.87
2019-05-07T19:20:42.024Z,7.01
2019-05-07T19:23:12.255Z,6.91
2019-05-07T19:25:42.658Z,6.84
2019-05-07T19:28:15.040Z,7.09
2019-05-07T19:30:45.252Z,6.87
2019-05-07T19:33:15.691Z,7.11
2019-05-07T19:35:46.118Z,6.95
2019-05-07T19:38:16.601Z,6.91
2019-05-07T19:40:47.535Z,6.91
2019-05-07T19:43:18.278Z,6.85
2019-05-07T19:45:48.645Z,6.90
2019-05-07T19:48:19.130Z,6.75
2019-05-07T19:50:50.107Z,6.92
2019-05-07T19:53:23.271Z,6.87
2019-05-07T19:56:07.766Z,6.72
2019-05-07T19:58:38.154Z,6.87
2019-05-07T20:01:11.976Z,7.01
2019-05-07T20:03:43.465Z,6.80
2019-05-07T20:06:14.285Z,6.70
2019-05-07T20:08:44.804Z,7.01
2019-05-07T20:11:43.619Z,6.90
2019-05-07T20:14:13.912Z,6.97
2019-05-07T20:16:44.356Z,6.89
2019-05-07T20:19:15.051Z,6.94
2019-05-07T20:21:45.496Z,7.07
2019-05-07T20:24:15.783Z,6.96
2019-05-07T20:26:46.531Z,6.87
2019-05-07T20:29:16.939Z,6.97
2019-05-07T20:31:47.367Z,6.97
2019-05-07T20:34:18.136Z,6.88
2019-05-07T20:36:48.954Z,6.84
2019-05-07T20:39:19.318Z,6.95
2019-05-07T20:41:52.495Z,6.91
2019-05-07T20:44:22.606Z,6.84
2019-05-07T20:46:53.699Z,6.89
2019-05-07T20:49:24.187Z,7.03
2019-05-07T20:51:55.001Z,6.81
2019-05-07T20:54:32.866Z,6.92
2019-05-07T20:57:08.922Z,6.91
2019-05-07T20:59:39.296Z,6.97
2019-05-07T21:02:11.731Z,7.02
2019-05-07T21:04:42.450Z,6.99
2019-05-07T21:07:13.371Z,6.86
2019-05-07T21:09:43.903Z,6.86
2019-05-07T21:12:14.293Z,6.88
2019-05-07T21:14:45.076Z,6.77
2019-05-07T21:17:15.485Z,6.97
2019-05-07T21:19:46.316Z,6.94
2019-05-07T21:22:16.593Z,6.93
2019-05-07T21:24:47.196Z,6.94
2019-05-07T21:27:17.998Z,6.81
2019-05-07T21:29:48.398Z,6.81
2019-05-07T21:32:18.854Z,6.90
2019-05-07T21:34:49.727Z,6.90
2019-05-07T21:37:22.727Z,7.07
2019-05-07T21:39:53.160Z,7.00
2019-05-07T21:42:23.999Z,7.12
2019-05-07T21:44:54.660Z,7.09
2019-05-07T21:47:25.015Z,7.07
2019-05-07T21:49:55.625Z,6.93
2019-05-07T21:52:27.574Z,6.97
2019-05-07T21:55:22.280Z,7.01
2019-05-07T21:58:11.817Z,7.10
2019-05-07T22:01:08.128Z,7.06
2019-05-07T22:03:43.289Z,7.14
2019-05-07T22:06:14.217Z,6.97
2019-05-07T22:08:44.529Z,7.08
2019-05-07T22:11:15.184Z,6.95
2019-05-07T22:13:45.862Z,7.03
2019-05-07T22:16:16.187Z,7.08
2019-05-07T22:18:46.736Z,7.08
2019-05-07T22:21:17.329Z,6.95
2019-05-07T22:23:47.947Z,7.12
2019-05-07T22:26:22.895Z,7.06
2019-05-07T22:28:53.863Z,7.08
2019-05-07T22:31:38.543Z,7.04
2019-05-07T22:34:27.200Z,7.15
2019-05-07T22:36:58.659Z,7.00
2019-05-07T22:39:48.871Z,6.96
2019-05-07T22:42:24.161Z,6.99
2019-05-07T22:44:55.064Z,7.01
2019-05-07T22:47:25.353Z,7.03
2019-05-07T22:49:55.888Z,7.09
2019-05-07T22:52:26.273Z,6.95
2019-05-07T22:54:56.689Z,6.99
2019-05-07T22:57:54.918Z,7.10
2019-05-07T23:00:37.938Z,6.99
2019-05-07T23:03:08.601Z,7.01
2019-05-07T23:05:39.040Z,6.93
2019-05-07T23:08:09.338Z,7.04
2019-05-07T23:10:39.847Z,6.83
2019-05-07T23:13:12.824Z,7.01
2019-05-07T23:15:42.997Z,6.94
2019-05-07T23:18:13.822Z,6.82
2019-05-07T23:20:44.477Z,6.90
2019-05-07T23:23:14.824Z,6.89
2019-05-07T23:25:45.582Z,6.88
2019-05-07T23:28:15.897Z,6.82
2019-05-07T23:30:46.394Z,6.90
2019-05-07T23:33:16.924Z,6.88
2019-05-07T23:35:48.335Z,6.78
2019-05-07T23:38:19.022Z,6.77
2019-05-07T23:44:30.600Z,6.83
2019-05-07T23:47:02.773Z,6.80
2019-05-07T23:49:34.529Z,6.85
2019-05-07T23:52:04.830Z,6.88
2019-05-07T23:54:35.310Z,6.77
2019-05-07T23:57:09.682Z,6.91
2019-05-07T23:59:38.065Z,6.87
